Time;durP1;ratioP1;P1;durP2;ratioP2;P2;SDS_P1;SDS_P2;PMS_P1;PMS_P2;Temp;Humidity;BMP_temperature;BMP_pressure;BME280_temperature;BME280_humidity;BME280_pressure;Samples;Min_cycle;Max_cycle;Signal;HPM_P1;HPM_P2
2023/12/21 00:02:20;;;;;;;0.10;0.10;;;;;;;;;;4977656;28;20054;-92
2023/12/21 00:04:47;;;;;;;0.20;0.20;;;;;;;;;;4978218;28;20053;-92
2023/12/21 00:07:16;;;;;;;0.17;0.17;;;;;;;;;;4961832;28;20046;-93
2023/12/21 00:09:45;;;;;;;0.15;0.15;;;;;;;;;;4977519;28;20125;-92
2023/12/21 00:12:11;;;;;;;0.13;0.13;;;;;;;;;;4977515;28;20046;-92
2023/12/21 00:14:37;;;;;;;0.10;0.10;;;;;;;;;;4977329;28;20138;-92
2023/12/21 00:17:03;;;;;;;0.10;0.10;;;;;;;;;;4977535;28;20114;-92
2023/12/21 00:19:30;;;;;;;0.13;0.13;;;;;;;;;;4977386;28;20050;-92
2023/12/21 00:21:56;;;;;;;0.30;0.30;;;;;;;;;;4977438;28;20120;-93
2023/12/21 00:24:22;;;;;;;0.10;0.10;;;;;;;;;;4976851;28;20089;-93
2023/12/21 00:26:48;;;;;;;0.10;0.10;;;;;;;;;;4977154;28;20124;-92
2023/12/21 00:29:14;;;;;;;0.10;0.10;;;;;;;;;;4976983;28;20038;-92
2023/12/21 00:31:40;;;;;;;0.10;0.10;;;;;;;;;;4976967;28;20038;-93
2023/12/21 00:34:06;;;;;;;0.10;0.10;;;;;;;;;;4977782;28;20149;-92
2023/12/21 00:36:32;;;;;;;0.10;0.10;;;;;;;;;;4976935;28;20125;-94
2023/12/21 00:38:58;;;;;;;0.40;0.40;;;;;;;;;;4977709;28;20034;-93
2023/12/21 00:41:24;;;;;;;0.10;0.10;;;;;;;;;;4976978;28;20049;-92
2023/12/21 00:43:50;;;;;;;0.10;0.10;;;;;;;;;;4976795;28;20505;-91
2023/12/21 00:46:16;;;;;;;0.10;0.10;;;;;;;;;;4976951;28;20454;-92
2023/12/21 00:48:43;;;;;;;0.10;0.10;;;;;;;;;;4977012;28;20370;-92
2023/12/21 00:51:09;;;;;;;0.10;0.10;;;;;;;;;;4977123;28;20042;-92
2023/12/21 00:53:35;;;;;;;0.10;0.10;;;;;;;;;;4977015;28;20474;-92
2023/12/21 00:56:01;;;;;;;0.10;0.10;;;;;;;;;;4976875;28;20478;-92
2023/12/21 00:58:27;;;;;;;0.10;0.10;;;;;;;;;;4976890;28;20056;-93
2023/12/21 01:00:55;;;;;;;0.10;0.10;;;;;;;;;;4976680;28;20072;-93
2023/12/21 01:03:21;;;;;;;0.10;0.10;;;;;;;;;;4976452;28;20069;-92
2023/12/21 01:05:48;;;;;;;0.20;0.20;;;;;;;;;;4976450;28;20438;-93
2023/12/21 01:08:14;;;;;;;0.10;0.10;;;;;;;;;;4992811;28;20038;-93
2023/12/21 01:10:40;;;;;;;0.10;0.10;;;;;;;;;;4976590;28;20537;-92
2023/12/21 01:13:06;;;;;;;0.30;0.30;;;;;;;;;;4976505;28;20046;-92
2023/12/21 01:15:33;;;;;;;0.10;0.10;;;;;;;;;;4976758;28;20042;-92
2023/12/21 01:17:59;;;;;;;0.17;0.17;;;;;;;;;;4976615;28;20513;-92
2023/12/21 01:20:25;;;;;;;0.65;0.65;;;;;;;;;;4976460;28;20180;-93
2023/12/21 01:22:51;;;;;;;0.10;0.10;;;;;;;;;;4976311;28;20049;-93
2023/12/21 01:25:17;;;;;;;0.10;0.10;;;;;;;;;;4975873;28;20042;-93
2023/12/21 01:27:43;;;;;;;0.10;0.10;;;;;;;;;;4992695;28;20109;-92
2023/12/21 01:30:09;;;;;;;0.20;0.20;;;;;;;;;;4976149;28;20512;-92
2023/12/21 01:32:35;;;;;;;0.47;0.32;;;;;;;;;;4976724;28;20134;-92
2023/12/21 01:35:01;;;;;;;0.52;0.52;;;;;;;;;;4977788;28;20092;-91
2023/12/21 01:37:27;;;;;;;0.25;0.25;;;;;;;;;;4980284;28;20046;-92
2023/12/21 01:39:53;;;;;;;0.20;0.20;;;;;;;;;;4980552;28;20243;-92
2023/12/21 01:42:19;;;;;;;0.10;0.10;;;;;;;;;;4980427;28;20042;-93
2023/12/21 01:44:45;;;;;;;0.10;0.10;;;;;;;;;;4996798;28;20038;-93
2023/12/21 01:47:11;;;;;;;0.10;0.10;;;;;;;;;;4980518;28;20125;-93
2023/12/21 01:49:38;;;;;;;0.10;0.10;;;;;;;;;;4980142;28;20053;-91
2023/12/21 01:52:05;;;;;;;0.10;0.10;;;;;;;;;;4980540;28;20096;-92
2023/12/21 01:54:31;;;;;;;0.20;0.20;;;;;;;;;;4980217;28;20042;-92
2023/12/21 01:56:57;;;;;;;0.20;0.20;;;;;;;;;;4980044;28;20044;-93
2023/12/21 01:59:23;;;;;;;0.20;0.20;;;;;;;;;;4980034;28;20199;-91
2023/12/21 02:01:49;;;;;;;0.10;0.10;;;;;;;;;;4979758;28;20112;-93
2023/12/21 02:04:15;;;;;;;0.10;0.10;;;;;;;;;;4980041;28;20038;-91
2023/12/21 02:06:41;;;;;;;0.10;0.10;;;;;;;;;;4979906;28;20035;-92
2023/12/21 02:09:08;;;;;;;0.20;0.20;;;;;;;;;;4980088;28;20034;-91
2023/12/21 02:11:34;;;;;;;0.20;0.20;;;;;;;;;;4996222;28;20038;-92
2023/12/21 02:14:27;;;;;;;0.20;0.20;;;;;;;;;;4979944;28;20042;-92
2023/12/21 02:16:53;;;;;;;;;;;;;;;;;;4978961;28;20084;-92
2023/12/21 02:19:19;;;;;;;0.20;0.20;;;;;;;;;;4979537;28;19918;-92
2023/12/21 02:21:46;;;;;;;0.10;0.10;;;;;;;;;;4980115;28;20060;-92
2023/12/21 02:24:15;;;;;;;0.10;0.10;;;;;;;;;;4979786;28;20065;-92
2023/12/21 02:26:42;;;;;;;0.20;0.20;;;;;;;;;;4979890;28;20394;-92
2023/12/21 02:29:08;;;;;;;0.10;0.10;;;;;;;;;;4995531;28;20042;-91
2023/12/21 02:31:34;;;;;;;0.20;0.20;;;;;;;;;;4995715;28;20092;-93
2023/12/21 02:34:00;;;;;;;0.10;0.10;;;;;;;;;;4979634;28;20038;-91
2023/12/21 02:36:27;;;;;;;0.10;0.10;;;;;;;;;;4979449;28;20049;-91
2023/12/21 02:38:54;;;;;;;0.13;0.13;;;;;;;;;;4979343;28;20061;-92
2023/12/21 02:41:20;;;;;;;0.10;0.10;;;;;;;;;;4979424;28;20121;-92
2023/12/21 02:43:46;;;;;;;0.20;0.20;;;;;;;;;;4979519;28;20057;-91
2023/12/21 02:46:12;;;;;;;0.10;0.10;;;;;;;;;;4978580;28;20129;-93
2023/12/21 02:48:38;;;;;;;0.30;0.30;;;;;;;;;;4979101;28;20549;-92
2023/12/21 02:51:05;;;;;;;0.10;0.10;;;;;;;;;;4995335;28;20042;-92
2023/12/21 02:53:31;;;;;;;0.10;0.10;;;;;;;;;;4994550;28;20090;-92
2023/12/21 02:55:58;;;;;;;0.17;0.17;;;;;;;;;;4978700;28;20039;-92
2023/12/21 02:58:24;;;;;;;0.20;0.20;;;;;;;;;;4978565;28;20521;-92
2023/12/21 03:00:52;;;;;;;0.20;0.20;;;;;;;;;;4978509;28;20058;-91
2023/12/21 03:03:18;;;;;;;0.10;0.10;;;;;;;;;;4979189;28;20065;-91
2023/12/21 03:05:44;;;;;;;0.10;0.10;;;;;;;;;;4978916;28;20172;-92
2023/12/21 03:08:10;;;;;;;0.10;0.10;;;;;;;;;;4978874;28;20545;-92
2023/12/21 03:10:36;;;;;;;0.10;0.10;;;;;;;;;;4978942;28;20133;-92
2023/12/21 03:13:02;;;;;;;0.30;0.30;;;;;;;;;;4978917;28;20140;-92
2023/12/21 03:15:28;;;;;;;0.20;0.20;;;;;;;;;;4994983;28;20046;-92
2023/12/21 03:17:54;;;;;;;0.20;0.20;;;;;;;;;;4978116;28;20054;-91
2023/12/21 03:20:20;;;;;;;0.20;0.20;;;;;;;;;;4978418;28;20066;-90
2023/12/21 03:22:46;;;;;;;0.15;0.15;;;;;;;;;;4994699;28;20053;-91
2023/12/21 03:25:12;;;;;;;0.20;0.20;;;;;;;;;;4978153;28;20085;-93
2023/12/21 03:27:38;;;;;;;0.10;0.10;;;;;;;;;;4995078;28;20081;-91
2023/12/21 03:30:04;;;;;;;0.10;0.10;;;;;;;;;;4978359;28;20479;-90
2023/12/21 03:32:30;;;;;;;0.20;0.20;;;;;;;;;;4994467;28;20411;-92
2023/12/21 03:34:56;;;;;;;0.10;0.10;;;;;;;;;;4978089;28;20104;-92
2023/12/21 03:37:27;;;;;;;0.13;0.13;;;;;;;;;;4994416;28;20038;-91
2023/12/21 03:39:54;;;;;;;0.20;0.20;;;;;;;;;;4978452;28;20047;-93
2023/12/21 03:42:20;;;;;;;0.10;0.10;;;;;;;;;;4978285;28;20513;-92
2023/12/21 03:44:46;;;;;;;0.20;0.20;;;;;;;;;;4978364;28;20073;-91
2023/12/21 03:47:12;;;;;;;0.10;0.10;;;;;;;;;;4978064;28;20042;-91
2023/12/21 03:49:38;;;;;;;0.20;0.20;;;;;;;;;;4978262;28;20042;-92
2023/12/21 03:52:04;;;;;;;0.20;0.20;;;;;;;;;;4977929;28;20490;-91
2023/12/21 03:54:30;;;;;;;0.10;0.10;;;;;;;;;;4977751;28;20046;-91
2023/12/21 03:56:56;;;;;;;0.10;0.10;;;;;;;;;;4977678;28;20072;-92
2023/12/21 03:59:22;;;;;;;0.10;0.10;;;;;;;;;;4977180;28;20419;-92
2023/12/21 04:01:48;;;;;;;0.10;0.10;;;;;;;;;;4977097;28;20054;-91
2023/12/21 04:04:15;;;;;;;0.10;0.10;;;;;;;;;;4977470;28;20049;-90
2023/12/21 04:06:54;;;;;;;0.10;0.10;;;;;;;;;;4988621;28;20042;-96
2023/12/21 04:09:20;;;;;;;0.20;0.20;;;;;;;;;;4993952;28;20084;-92
2023/12/21 04:11:46;;;;;;;0.10;0.10;;;;;;;;;;4977597;28;20532;-92
2023/12/21 04:14:12;;;;;;;0.10;0.10;;;;;;;;;;4977260;28;20042;-91
2023/12/21 04:16:38;;;;;;;0.10;0.10;;;;;;;;;;4977436;28;20035;-92
2023/12/21 04:19:06;;;;;;;0.10;0.10;;;;;;;;;;4977630;28;20126;-92
2023/12/21 04:21:32;;;;;;;0.10;0.10;;;;;;;;;;4977296;28;20046;-91
2023/12/21 04:23:58;;;;;;;0.10;0.10;;;;;;;;;;4977260;28;20172;-92
2023/12/21 04:26:24;;;;;;;0.10;0.10;;;;;;;;;;4993162;28;20520;-91
2023/12/21 04:28:50;;;;;;;0.10;0.10;;;;;;;;;;4977838;28;20073;-91
2023/12/21 04:31:22;;;;;;;0.10;0.10;;;;;;;;;;4993465;28;20124;-91
2023/12/21 04:33:49;;;;;;;0.10;0.10;;;;;;;;;;4977203;28;20133;-92
2023/12/21 04:36:15;;;;;;;0.10;0.10;;;;;;;;;;4977456;28;20042;-91
2023/12/21 04:38:41;;;;;;;0.10;0.10;;;;;;;;;;4977949;28;20046;-92
2023/12/21 04:41:07;;;;;;;0.20;0.20;;;;;;;;;;4976683;28;20134;-93
2023/12/21 04:43:33;;;;;;;0.20;0.20;;;;;;;;;;4976532;28;20042;-92
2023/12/21 04:46:00;;;;;;;0.10;0.10;;;;;;;;;;4977138;28;20097;-92
2023/12/21 04:48:26;;;;;;;0.10;0.10;;;;;;;;;;4992939;28;20552;-92
2023/12/21 04:50:52;;;;;;;0.20;0.20;;;;;;;;;;4976743;28;20039;-92
2023/12/21 04:53:18;;;;;;;0.20;0.20;;;;;;;;;;4977078;28;20092;-93
2023/12/21 04:55:45;;;;;;;0.10;0.10;;;;;;;;;;4976614;28;20486;-91
2023/12/21 04:58:11;;;;;;;0.10;0.10;;;;;;;;;;4993143;28;20081;-92
2023/12/21 05:00:40;;;;;;;1.00;0.20;;;;;;;;;;4989881;28;20411;-92
2023/12/21 05:03:06;;;;;;;0.10;0.10;;;;;;;;;;4957460;28;20097;-91
2023/12/21 05:05:32;;;;;;;0.10;0.10;;;;;;;;;;4957400;28;20125;-92
2023/12/21 05:07:58;;;;;;;0.32;0.32;;;;;;;;;;4957472;28;20043;-92
2023/12/21 05:10:24;;;;;;;0.10;0.10;;;;;;;;;;4957406;28;20139;-91
2023/12/21 05:12:50;;;;;;;0.20;0.20;;;;;;;;;;4957231;28;20062;-93
2023/12/21 05:15:16;;;;;;;0.20;0.20;;;;;;;;;;4957358;28;20069;-92
2023/12/21 05:17:42;;;;;;;0.10;0.10;;;;;;;;;;4957555;28;20046;-94
2023/12/21 05:20:09;;;;;;;0.20;0.20;;;;;;;;;;4957132;28;20054;-93
2023/12/21 05:22:35;;;;;;;0.20;0.20;;;;;;;;;;4957251;28;20394;-93
2023/12/21 05:25:01;;;;;;;0.10;0.10;;;;;;;;;;4957238;28;20133;-93
2023/12/21 05:27:27;;;;;;;0.20;0.20;;;;;;;;;;4956971;28;20074;-94
2023/12/21 05:29:53;;;;;;;0.10;0.10;;;;;;;;;;4957255;28;20129;-93
2023/12/21 05:32:19;;;;;;;0.20;0.20;;;;;;;;;;4957024;28;20101;-93
2023/12/21 05:34:45;;;;;;;0.20;0.20;;;;;;;;;;4957725;28;20051;-93
2023/12/21 05:37:11;;;;;;;0.10;0.10;;;;;;;;;;4957202;28;20043;-92
2023/12/21 05:39:39;;;;;;;0.20;0.20;;;;;;;;;;4957090;28;20039;-92
2023/12/21 05:42:05;;;;;;;0.10;0.10;;;;;;;;;;4957247;28;20089;-94
2023/12/21 05:44:31;;;;;;;0.10;0.10;;;;;;;;;;4956655;28;20038;-91
2023/12/21 05:46:57;;;;;;;4.57;0.35;;;;;;;;;;4956907;28;20043;-91
2023/12/21 05:49:23;;;;;;;0.10;0.10;;;;;;;;;;4956937;28;20038;-91
2023/12/21 05:51:49;;;;;;;0.20;0.20;;;;;;;;;;4956758;28;20446;-91
2023/12/21 05:54:15;;;;;;;0.10;0.10;;;;;;;;;;4956898;28;20074;-92
2023/12/21 05:56:42;;;;;;;0.52;0.52;;;;;;;;;;4957000;28;20482;-91
2023/12/21 05:59:11;;;;;;;0.20;0.20;;;;;;;;;;4956702;28;20585;-91
2023/12/21 06:01:37;;;;;;;0.57;0.57;;;;;;;;;;4972464;28;20058;-92
2023/12/21 06:04:03;;;;;;;0.10;0.10;;;;;;;;;;4956674;28;20047;-90
2023/12/21 06:06:29;;;;;;;0.10;0.10;;;;;;;;;;4956834;28;20125;-91
2023/12/21 06:08:57;;;;;;;0.20;0.20;;;;;;;;;;4956693;28;20049;-90
2023/12/21 06:11:23;;;;;;;0.10;0.10;;;;;;;;;;4956977;28;20043;-92
2023/12/21 06:13:49;;;;;;;0.10;0.10;;;;;;;;;;4957170;28;20176;-92
2023/12/21 06:16:15;;;;;;;0.10;0.10;;;;;;;;;;4958320;28;20077;-93
2023/12/21 06:18:41;;;;;;;0.47;0.30;;;;;;;;;;4973342;28;20039;-91
2023/12/21 06:21:07;;;;;;;0.10;0.10;;;;;;;;;;4956901;28;20046;-91
2023/12/21 06:23:33;;;;;;;0.10;0.10;;;;;;;;;;4960448;28;20046;-91
2023/12/21 06:26:00;;;;;;;0.10;0.10;;;;;;;;;;4961491;28;20500;-91
2023/12/21 06:28:27;;;;;;;0.10;0.10;;;;;;;;;;4960547;28;20494;-91
2023/12/21 06:30:53;;;;;;;0.10;0.10;;;;;;;;;;4960078;28;20097;-92
2023/12/21 06:33:20;;;;;;;0.20;0.20;;;;;;;;;;4960253;28;20046;-92
2023/12/21 06:35:46;;;;;;;1.40;0.82;;;;;;;;;;4960243;28;20105;-91
2023/12/21 06:38:12;;;;;;;0.10;0.10;;;;;;;;;;4960136;28;20054;-92
2023/12/21 06:40:39;;;;;;;0.10;0.10;;;;;;;;;;4959965;28;20055;-92
2023/12/21 06:43:05;;;;;;;0.10;0.10;;;;;;;;;;4959581;28;20043;-93
2023/12/21 06:45:31;;;;;;;0.10;0.10;;;;;;;;;;4960298;28;20129;-92
2023/12/21 06:48:00;;;;;;;0.20;0.20;;;;;;;;;;4960341;28;20046;-91
2023/12/21 06:50:26;;;;;;;0.10;0.10;;;;;;;;;;4959867;28;20047;-91
2023/12/21 06:52:52;;;;;;;0.20;0.20;;;;;;;;;;4960354;28;20201;-95
2023/12/21 06:55:18;;;;;;;0.20;0.20;;;;;;;;;;4960216;28;20043;-92
2023/12/21 06:57:44;;;;;;;0.10;0.10;;;;;;;;;;4959536;28;20046;-94
2023/12/21 07:00:11;;;;;;;0.10;0.10;;;;;;;;;;4961275;28;20090;-92
2023/12/21 07:02:37;;;;;;;0.20;0.20;;;;;;;;;;4995143;28;20505;-93
2023/12/21 07:05:03;;;;;;;0.20;0.20;;;;;;;;;;4978765;28;20045;-92
2023/12/21 07:07:30;;;;;;;0.10;0.10;;;;;;;;;;4978535;28;20041;-92
2023/12/21 07:09:56;;;;;;;0.20;0.20;;;;;;;;;;4978649;28;20046;-92
2023/12/21 07:12:24;;;;;;;0.10;0.10;;;;;;;;;;4979084;28;20164;-93
2023/12/21 07:14:50;;;;;;;0.10;0.10;;;;;;;;;;4978768;28;20065;-91
2023/12/21 07:17:17;;;;;;;0.10;0.10;;;;;;;;;;4978125;28;20049;-94
2023/12/21 07:19:43;;;;;;;0.20;0.20;;;;;;;;;;4978398;28;20085;-92
2023/12/21 07:22:11;;;;;;;0.20;0.20;;;;;;;;;;4978891;28;20045;-93
2023/12/21 07:24:39;;;;;;;0.10;0.10;;;;;;;;;;4978342;28;20116;-94
2023/12/21 07:27:05;;;;;;;0.75;0.75;;;;;;;;;;4995392;28;20110;-94
2023/12/21 07:29:31;;;;;;;0.15;0.15;;;;;;;;;;4978920;28;20088;-92
2023/12/21 07:31:58;;;;;;;0.10;0.10;;;;;;;;;;4978118;28;20038;-93
2023/12/21 07:34:24;;;;;;;0.20;0.20;;;;;;;;;;4977952;28;20042;-93
2023/12/21 07:36:50;;;;;;;0.10;0.10;;;;;;;;;;4978340;28;20038;-93
2023/12/21 07:39:16;;;;;;;0.20;0.20;;;;;;;;;;4977695;28;20038;-92
2023/12/21 07:41:42;;;;;;;0.20;0.20;;;;;;;;;;4978085;28;20042;-91
2023/12/21 07:44:08;;;;;;;0.10;0.10;;;;;;;;;;4977854;28;20045;-90
2023/12/21 07:46:34;;;;;;;0.10;0.10;;;;;;;;;;4977858;28;20046;-90
2023/12/21 07:49:00;;;;;;;0.10;0.10;;;;;;;;;;4977781;28;20049;-90
2023/12/21 07:51:26;;;;;;;0.15;0.15;;;;;;;;;;4994239;28;20042;-92
2023/12/21 07:53:52;;;;;;;0.10;0.10;;;;;;;;;;4993828;28;20046;-91
2023/12/21 07:56:18;;;;;;;0.10;0.10;;;;;;;;;;4977918;28;20045;-91
2023/12/21 07:58:46;;;;;;;0.10;0.10;;;;;;;;;;4977930;28;20053;-93
2023/12/21 08:01:12;;;;;;;0.10;0.10;;;;;;;;;;4977369;28;20089;-91
2023/12/21 08:03:38;;;;;;;0.10;0.10;;;;;;;;;;4977497;28;20085;-92
2023/12/21 08:06:05;;;;;;;0.10;0.10;;;;;;;;;;4977753;28;20038;-92
2023/12/21 08:08:31;;;;;;;0.10;0.10;;;;;;;;;;4993889;28;20076;-92
2023/12/21 08:10:57;;;;;;;0.10;0.10;;;;;;;;;;4977846;28;20038;-93
2023/12/21 08:13:23;;;;;;;3.92;0.60;;;;;;;;;;4995012;28;20035;-95
2023/12/21 08:15:49;;;;;;;0.10;0.10;;;;;;;;;;4977383;28;20128;-94
2023/12/21 08:18:16;;;;;;;0.10;0.10;;;;;;;;;;4978330;28;20045;-94
2023/12/21 08:20:47;;;;;;;0.10;0.10;;;;;;;;;;4992192;28;20042;-93
2023/12/21 08:23:13;;;;;;;0.20;0.20;;;;;;;;;;4983266;28;20446;-93
2023/12/21 08:25:39;;;;;;;0.10;0.10;;;;;;;;;;4988143;28;20136;-91
2023/12/21 08:28:05;;;;;;;0.10;0.10;;;;;;;;;;4960769;28;20034;-91
2023/12/21 08:30:31;;;;;;;0.30;0.30;;;;;;;;;;4976937;28;20039;-93
2023/12/21 08:32:57;;;;;;;0.10;0.10;;;;;;;;;;4977080;28;20046;-91
2023/12/21 08:35:23;;;;;;;0.10;0.10;;;;;;;;;;4977389;28;20050;-91
2023/12/21 08:37:49;;;;;;;0.10;0.10;;;;;;;;;;4960558;28;20107;-91
2023/12/21 08:40:15;;;;;;;0.10;0.10;;;;;;;;;;4960979;28;20050;-92
2023/12/21 08:42:41;;;;;;;0.10;0.10;;;;;;;;;;4960246;28;20046;-91
2023/12/21 08:45:10;;;;;;;0.10;0.10;;;;;;;;;;4975936;28;20042;-90
2023/12/21 08:47:40;;;;;;;0.10;0.10;;;;;;;;;;4992273;28;20053;-88
2023/12/21 08:50:07;;;;;;;0.10;0.10;;;;;;;;;;4959870;28;20050;-89
2023/12/21 08:52:33;;;;;;;0.10;0.10;;;;;;;;;;4976538;28;20374;-90
2023/12/21 08:55:00;;;;;;;0.10;0.10;;;;;;;;;;4975935;28;20038;-88
2023/12/21 08:57:26;;;;;;;0.10;0.10;;;;;;;;;;4960268;28;20129;-89
2023/12/21 08:59:52;;;;;;;0.10;0.10;;;;;;;;;;4959767;28;20038;-89
2023/12/21 09:02:18;;;;;;;0.10;0.10;;;;;;;;;;4975443;28;20105;-89
2023/12/21 09:04:44;;;;;;;0.10;0.10;;;;;;;;;;4991694;28;20092;-89
2023/12/21 09:07:11;;;;;;;0.10;0.10;;;;;;;;;;4991856;28;20074;-89
2023/12/21 09:09:37;;;;;;;0.10;0.10;;;;;;;;;;4991728;28;20490;-89
2023/12/21 09:12:03;;;;;;;0.10;0.10;;;;;;;;;;4975539;28;20038;-89
2023/12/21 09:14:29;;;;;;;0.20;0.20;;;;;;;;;;4976964;28;20046;-88
2023/12/21 09:16:55;;;;;;;0.10;0.10;;;;;;;;;;4995051;28;20069;-89
2023/12/21 09:19:21;;;;;;;0.10;0.10;;;;;;;;;;4994691;28;20335;-88
2023/12/21 09:21:47;;;;;;;0.10;0.10;;;;;;;;;;4994809;28;20045;-89
2023/12/21 09:24:13;;;;;;;0.43;0.43;;;;;;;;;;5011179;28;20034;-89
2023/12/21 09:26:39;;;;;;;0.17;0.17;;;;;;;;;;4994627;28;20045;-89
2023/12/21 09:29:05;;;;;;;0.10;0.10;;;;;;;;;;4994758;28;20042;-90
2023/12/21 09:31:32;;;;;;;0.10;0.10;;;;;;;;;;4995964;28;20368;-89
2023/12/21 09:33:59;;;;;;;0.10;0.10;;;;;;;;;;4959011;28;20049;-90
2023/12/21 09:36:25;;;;;;;0.10;0.10;;;;;;;;;;4958961;28;20128;-90
2023/12/21 09:38:52;;;;;;;0.10;0.10;;;;;;;;;;4975371;28;20105;-90
2023/12/21 09:41:18;;;;;;;0.10;0.10;;;;;;;;;;4975335;28;20398;-90
2023/12/21 09:43:45;;;;;;;0.20;0.20;;;;;;;;;;4959401;28;20097;-91
2023/12/21 09:46:11;;;;;;;0.10;0.10;;;;;;;;;;4959430;28;20046;-89
2023/12/21 09:48:40;;;;;;;0.20;0.20;;;;;;;;;;4959505;28;20490;-89
2023/12/21 09:51:07;;;;;;;0.10;0.10;;;;;;;;;;4987732;28;20496;-90
2023/12/21 09:53:33;;;;;;;0.10;0.10;;;;;;;;;;4994749;28;20188;-90
2023/12/21 09:56:00;;;;;;;0.35;0.20;;;;;;;;;;4994589;28;20124;-90
2023/12/21 09:58:26;;;;;;;0.10;0.10;;;;;;;;;;5014904;28;20079;-90
2023/12/21 10:00:52;;;;;;;0.10;0.10;;;;;;;;;;4998489;28;20102;-91
2023/12/21 10:03:18;;;;;;;0.10;0.10;;;;;;;;;;4998654;28;20401;-91
2023/12/21 10:05:45;;;;;;;0.10;0.10;;;;;;;;;;4998170;28;20511;-90
2023/12/21 10:08:11;;;;;;;0.17;0.17;;;;;;;;;;4998271;28;20045;-90
2023/12/21 10:10:38;;;;;;;0.10;0.10;;;;;;;;;;4998111;28;20042;-89
2023/12/21 10:13:04;;;;;;;1.38;0.25;;;;;;;;;;4998277;28;20180;-94
2023/12/21 10:15:32;;;;;;;0.20;0.20;;;;;;;;;;4983758;28;20038;-88
2023/12/21 10:17:59;;;;;;;0.10;0.10;;;;;;;;;;4979136;28;20106;-90
2023/12/21 10:20:26;;;;;;;0.10;0.10;;;;;;;;;;4981241;28;20049;-90
2023/12/21 10:22:52;;;;;;;0.30;0.30;;;;;;;;;;4962026;28;20069;-88
2023/12/21 10:25:21;;;;;;;0.10;0.10;;;;;;;;;;4978497;28;20034;-89
2023/12/21 10:27:56;;;;;;;0.10;0.10;;;;;;;;;;4964362;28;20042;-89
2023/12/21 10:30:25;;;;;;;3.17;1.15;;;;;;;;;;4962417;28;20034;-90
2023/12/21 10:32:57;;;;;;;0.20;0.20;;;;;;;;;;4978406;28;20046;-90
2023/12/21 10:35:23;;;;;;;0.10;0.10;;;;;;;;;;4974712;28;20491;-89
2023/12/21 10:37:49;;;;;;;0.10;0.10;;;;;;;;;;4942958;28;20047;-90
2023/12/21 10:40:16;;;;;;;0.10;0.10;;;;;;;;;;4946474;28;20034;-89
2023/12/21 10:42:43;;;;;;;0.10;0.10;;;;;;;;;;4978121;28;20085;-90
2023/12/21 10:45:09;;;;;;;0.20;0.20;;;;;;;;;;4978105;28;20509;-88
2023/12/21 10:47:35;;;;;;;0.70;0.70;;;;;;;;;;4978007;28;20347;-89
2023/12/21 10:50:02;;;;;;;0.55;0.55;;;;;;;;;;4977872;28;20042;-89
2023/12/21 10:52:28;;;;;;;0.75;0.35;;;;;;;;;;4977936;28;20042;-89
2023/12/21 10:54:54;;;;;;;0.10;0.10;;;;;;;;;;4994076;28;20525;-89
2023/12/21 10:57:19;;;;;;;0.30;0.30;;;;;;;;;;4995327;28;20046;-89
2023/12/21 10:59:46;;;;;;;0.20;0.20;;;;;;;;;;4980493;28;20065;-89
2023/12/21 11:02:13;;;;;;;0.10;0.10;;;;;;;;;;4991935;28;20573;-90
2023/12/21 11:04:39;;;;;;;1.30;1.27;;;;;;;;;;4961900;28;20374;-89
2023/12/21 11:07:06;;;;;;;0.10;0.10;;;;;;;;;;4961129;28;20042;-88
2023/12/21 11:09:32;;;;;;;0.30;0.30;;;;;;;;;;4977484;28;20042;-93
2023/12/21 11:11:58;;;;;;;0.80;0.32;;;;;;;;;;4981528;28;20048;-89
2023/12/21 11:14:24;;;;;;;0.30;0.30;;;;;;;;;;5010009;28;20085;-90
2023/12/21 11:16:53;;;;;;;0.10;0.10;;;;;;;;;;4988002;28;20038;-89
2023/12/21 11:19:25;;;;;;;0.20;0.20;;;;;;;;;;4961848;28;20390;-89
2023/12/21 11:21:51;;;;;;;0.32;0.32;;;;;;;;;;4961589;28;20046;-89
2023/12/21 11:24:21;;;;;;;0.60;0.60;;;;;;;;;;4977728;28;20401;-90
2023/12/21 11:26:47;;;;;;;0.20;0.20;;;;;;;;;;4978212;28;20047;-92
2023/12/21 11:29:13;;;;;;;2.47;0.22;;;;;;;;;;4977750;28;20091;-89
2023/12/21 11:31:40;;;;;;;0.10;0.10;;;;;;;;;;4974007;28;20043;-89
2023/12/21 11:34:13;;;;;;;0.10;0.10;;;;;;;;;;4942129;28;20046;-91
2023/12/21 11:36:39;;;;;;;0.17;0.17;;;;;;;;;;4953507;28;20053;-88
2023/12/21 11:39:08;;;;;;;0.55;0.32;;;;;;;;;;4977104;28;20050;-89
2023/12/21 11:41:34;;;;;;;0.10;0.10;;;;;;;;;;4976788;28;20078;-88
2023/12/21 11:44:01;;;;;;;0.10;0.10;;;;;;;;;;4977403;28;20136;-89
2023/12/21 11:46:27;;;;;;;0.10;0.10;;;;;;;;;;4977089;28;20552;-89
2023/12/21 11:48:53;;;;;;;0.20;0.20;;;;;;;;;;4977368;28;20046;-89
2023/12/21 11:51:19;;;;;;;0.10;0.10;;;;;;;;;;4973798;28;20486;-87
2023/12/21 11:53:45;;;;;;;0.10;0.10;;;;;;;;;;4942084;28;20082;-89
2023/12/21 11:56:14;;;;;;;0.30;0.30;;;;;;;;;;4948498;28;20146;-89
2023/12/21 11:58:40;;;;;;;1.45;0.32;;;;;;;;;;4976891;28;20548;-89
2023/12/21 12:01:07;;;;;;;0.10;0.10;;;;;;;;;;4973463;28;20058;-88
2023/12/21 12:03:33;;;;;;;0.10;0.10;;;;;;;;;;4941964;28;20400;-89
2023/12/21 12:06:04;;;;;;;0.10;0.10;;;;;;;;;;4946083;28;20031;-89
2023/12/21 12:08:30;;;;;;;0.10;0.10;;;;;;;;;;4977059;28;20494;-89
2023/12/21 12:10:57;;;;;;;0.30;0.30;;;;;;;;;;4976859;28;20042;-88
2023/12/21 12:13:23;;;;;;;0.20;0.20;;;;;;;;;;4976618;28;20046;-89
2023/12/21 12:15:53;;;;;;;0.30;0.30;;;;;;;;;;4976959;28;20049;-89
2023/12/21 12:18:22;;;;;;;0.10;0.10;;;;;;;;;;4976411;28;20053;-89
2023/12/21 12:20:48;;;;;;;2.33;0.20;;;;;;;;;;4976122;28;20057;-88
2023/12/21 12:23:14;;;;;;;0.13;0.13;;;;;;;;;;4976875;28;20073;-90
2023/12/21 12:25:41;;;;;;;0.20;0.20;;;;;;;;;;4974578;28;20125;-88
2023/12/21 12:28:07;;;;;;;2.03;0.30;;;;;;;;;;4960210;28;20206;-88
2023/12/21 12:30:33;;;;;;;1.38;0.20;;;;;;;;;;4975871;28;20209;-88
2023/12/21 12:33:02;;;;;;;0.30;0.30;;;;;;;;;;4960497;28;20160;-89
2023/12/21 12:35:29;;;;;;;0.88;0.88;;;;;;;;;;4976404;28;20045;-89
2023/12/21 12:37:55;;;;;;;0.20;0.20;;;;;;;;;;4960644;28;20338;-91
2023/12/21 12:40:22;;;;;;;0.40;0.40;;;;;;;;;;4961831;28;20041;-91
2023/12/21 12:42:48;;;;;;;0.10;0.10;;;;;;;;;;4976849;28;20046;-92
2023/12/21 12:45:14;;;;;;;0.50;0.50;;;;;;;;;;4976868;28;20486;-89
2023/12/21 12:47:40;;;;;;;0.10;0.10;;;;;;;;;;4992789;28;20069;-90
2023/12/21 12:50:07;;;;;;;0.30;0.30;;;;;;;;;;4993018;28;20105;-90
2023/12/21 12:52:33;;;;;;;0.30;0.30;;;;;;;;;;4976875;28;20048;-91
2023/12/21 12:55:02;;;;;;;0.20;0.20;;;;;;;;;;4976467;28;20046;-92
2023/12/21 12:57:28;;;;;;;0.40;0.40;;;;;;;;;;4976420;28;20050;-92
2023/12/21 12:59:58;;;;;;;0.43;0.40;;;;;;;;;;4976747;28;20042;-92
2023/12/21 13:02:24;;;;;;;2.13;1.95;;;;;;;;;;4992335;28;20054;-91
2023/12/21 13:04:50;;;;;;;3.95;1.70;;;;;;;;;;4960380;28;20038;-91
2023/12/21 13:07:17;;;;;;;0.52;0.50;;;;;;;;;;4959968;28;20069;-90
2023/12/21 13:09:43;;;;;;;1.17;0.80;;;;;;;;;;4976205;28;20445;-91
2023/12/21 13:12:09;;;;;;;0.10;0.10;;;;;;;;;;4975910;28;20061;-89
2023/12/21 13:14:35;;;;;;;0.45;0.45;;;;;;;;;;4975857;28;20529;-90
2023/12/21 13:17:01;;;;;;;0.15;0.15;;;;;;;;;;4972324;28;20042;-90
2023/12/21 13:19:27;;;;;;;1.17;0.30;;;;;;;;;;4940816;28;20031;-89
2023/12/21 13:21:55;;;;;;;0.10;0.10;;;;;;;;;;4953919;28;20045;-89
2023/12/21 13:24:21;;;;;;;1.08;0.68;;;;;;;;;;4975550;28;20050;-90
2023/12/21 13:26:47;;;;;;;0.93;0.30;;;;;;;;;;4975610;28;20044;-90
2023/12/21 13:29:13;;;;;;;0.10;0.10;;;;;;;;;;4976452;28;20088;-90
2023/12/21 13:31:40;;;;;;;0.10;0.10;;;;;;;;;;4977118;28;20043;-90
2023/12/21 13:34:06;;;;;;;0.75;0.75;;;;;;;;;;4977270;28;20057;-88
2023/12/21 13:36:32;;;;;;;0.10;0.10;;;;;;;;;;4975961;28;20046;-92
2023/12/21 13:38:58;;;;;;;0.22;0.22;;;;;;;;;;4976290;28;20069;-91
2023/12/21 13:41:24;;;;;;;2.28;0.30;;;;;;;;;;4975652;28;20453;-91
2023/12/21 13:43:50;;;;;;;0.10;0.10;;;;;;;;;;4975711;28;20042;-91
2023/12/21 13:46:17;;;;;;;0.40;0.40;;;;;;;;;;4975723;28;20069;-90
2023/12/21 13:48:44;;;;;;;0.10;0.10;;;;;;;;;;4975744;28;20042;-92
2023/12/21 13:51:10;;;;;;;0.10;0.10;;;;;;;;;;4972007;28;20037;-90
2023/12/21 13:53:36;;;;;;;0.10;0.10;;;;;;;;;;4975506;28;20046;-90
2023/12/21 13:56:05;;;;;;;0.10;0.10;;;;;;;;;;4979323;28;20041;-91
2023/12/21 13:58:31;;;;;;;0.20;0.20;;;;;;;;;;4995060;28;20459;-91
2023/12/21 14:00:57;;;;;;;0.20;0.20;;;;;;;;;;5007127;28;20136;-90
2023/12/21 14:03:25;;;;;;;0.10;0.10;;;;;;;;;;4976029;28;20105;-91
2023/12/21 14:05:51;;;;;;;0.30;0.20;;;;;;;;;;4975483;28;20101;-90
2023/12/21 14:08:17;;;;;;;0.25;0.25;;;;;;;;;;4975739;28;20049;-89
2023/12/21 14:10:43;;;;;;;0.20;0.20;;;;;;;;;;4975138;28;20038;-90
2023/12/21 14:13:09;;;;;;;0.20;0.20;;;;;;;;;;4975519;28;20081;-89
2023/12/21 14:15:39;;;;;;;0.10;0.10;;;;;;;;;;4975669;28;20510;-90
2023/12/21 14:18:05;;;;;;;0.10;0.10;;;;;;;;;;4975431;28;20122;-90
2023/12/21 14:20:32;;;;;;;0.10;0.10;;;;;;;;;;4976013;28;20410;-94
2023/12/21 14:22:58;;;;;;;0.10;0.10;;;;;;;;;;4955784;28;20034;-91
2023/12/21 14:25:24;;;;;;;0.10;0.10;;;;;;;;;;4939647;28;20494;-90
2023/12/21 14:27:51;;;;;;;0.10;0.10;;;;;;;;;;4939757;28;20081;-89
2023/12/21 14:30:17;;;;;;;0.10;0.10;;;;;;;;;;4955510;28;20047;-89
2023/12/21 14:32:44;;;;;;;0.20;0.20;;;;;;;;;;4955841;28;20181;-90
2023/12/21 14:35:10;;;;;;;0.10;0.10;;;;;;;;;;4955863;28;20039;-90
2023/12/21 14:37:36;;;;;;;0.10;0.10;;;;;;;;;;4955667;28;20043;-90
2023/12/21 14:40:03;;;;;;;0.43;0.43;;;;;;;;;;4955588;28;20049;-89